createdAt,value
2019-04-11T00:02:02.557Z,61.79
2019-04-11T00:04:32.950Z,61.82
2019-04-11T00:07:03.907Z,61.81
2019-04-11T00:09:34.551Z,61.81
2019-04-11T00:12:06.619Z,61.81
2019-04-11T00:14:37.951Z,61.82
2019-04-11T00:17:09.974Z,61.82
2019-04-11T00:19:40.465Z,61.82
2019-04-11T00:22:11.113Z,61.81
2019-04-11T00:24:43.032Z,61.80
2019-04-11T00:27:14.891Z,61.79
2019-04-11T00:29:45.371Z,61.79
2019-04-11T00:32:17.033Z,61.80
2019-04-11T00:34:47.481Z,61.80
2019-04-11T00:37:19.012Z,61.81
2019-04-11T00:39:50.011Z,61.80
2019-04-11T00:42:20.794Z,61.80
2019-04-11T00:44:51.488Z,61.79
2019-04-11T00:47:22.736Z,61.81
2019-04-11T00:49:53.177Z,61.79
2019-04-11T00:52:23.572Z,61.77
2019-04-11T00:54:55.289Z,61.75
2019-04-11T00:57:25.687Z,61.79
2019-04-11T00:59:56.489Z,61.79
2019-04-11T01:02:26.944Z,61.82
2019-04-11T01:04:57.269Z,61.81
2019-04-11T01:07:27.621Z,61.81
2019-04-11T01:09:58.928Z,61.83
2019-04-11T01:12:29.871Z,61.82
2019-04-11T01:15:00.264Z,61.79
2019-04-11T01:17:31.530Z,61.79
2019-04-11T01:20:02.967Z,61.79
2019-04-11T01:22:34.014Z,61.81
2019-04-11T01:25:04.934Z,61.81
2019-04-11T01:27:36.239Z,61.79
2019-04-11T01:30:09.233Z,61.81
2019-04-11T01:32:40.277Z,61.80
2019-04-11T01:35:10.939Z,61.82
2019-04-11T01:37:41.953Z,61.80
2019-04-11T01:40:12.452Z,61.80
2019-04-11T01:42:43.710Z,61.79
2019-04-11T01:45:17.065Z,61.79
2019-04-11T01:47:57.379Z,61.81
2019-04-11T01:50:30.828Z,61.80
2019-04-11T01:53:02.546Z,61.81
2019-04-11T01:55:33.097Z,61.83
2019-04-11T01:58:04.507Z,61.82
2019-04-11T02:00:54.670Z,61.80
2019-04-11T02:03:37.228Z,61.83
2019-04-11T02:06:07.725Z,61.82
2019-04-11T02:08:38.069Z,61.82
2019-04-11T02:11:09.860Z,61.84
2019-04-11T02:13:40.206Z,61.83
2019-04-11T02:16:10.641Z,61.84
2019-04-11T02:18:40.991Z,61.82
2019-04-11T02:21:11.627Z,61.84
2019-04-11T02:24:05.791Z,61.85
2019-04-11T02:26:37.614Z,61.86
2019-04-11T02:29:10.904Z,61.84
2019-04-11T02:31:42.403Z,61.85
2019-04-11T02:34:13.626Z,61.87
2019-04-11T02:36:45.177Z,61.87
2019-04-11T02:39:19.183Z,61.89
2019-04-11T02:41:48.177Z,61.88
2019-04-11T02:44:53.219Z,61.91
2019-04-11T02:47:00.718Z,61.91
2019-04-11T02:49:25.773Z,61.93
2019-04-11T02:51:56.109Z,61.93
2019-04-11T02:54:28.214Z,61.94
2019-04-11T02:57:02.546Z,61.94
2019-04-11T02:59:34.370Z,61.96
2019-04-11T03:02:06.903Z,61.95
2019-04-11T03:04:39.196Z,61.96
2019-04-11T03:07:12.328Z,61.97
2019-04-11T03:09:44.041Z,61.98
2019-04-11T03:12:15.609Z,61.97
2019-04-11T03:15:07.814Z,61.98
2019-04-11T03:17:23.052Z,61.97
2019-04-11T03:20:02.696Z,61.98
2019-04-11T03:22:26.810Z,61.97
2019-04-11T03:25:00.054Z,62.00
2019-04-11T03:27:30.514Z,62.01
2019-04-11T03:30:03.169Z,62.01
2019-04-11T03:33:29.860Z,62.01
2019-04-11T03:36:01.243Z,62.01
2019-04-11T03:38:00.393Z,62.01
2019-04-11T03:40:32.105Z,62.01
2019-04-11T03:42:59.899Z,62.00
2019-04-11T03:45:40.144Z,61.98
2019-04-11T03:48:06.110Z,62.00
2019-04-11T03:50:26.087Z,62.00
2019-04-11T03:52:57.849Z,62.00
2019-04-11T03:55:30.751Z,62.03
2019-04-11T03:58:01.226Z,62.01
2019-04-11T04:00:36.205Z,62.04
2019-04-11T04:03:06.150Z,62.03
2019-04-11T04:05:38.985Z,62.06
2019-04-11T04:08:10.777Z,62.08
2019-04-11T04:11:00.678Z,62.08
2019-04-11T04:13:31.981Z,62.07
2019-04-11T04:16:27.350Z,62.08
2019-04-11T04:19:01.049Z,62.11
2019-04-11T04:21:57.478Z,62.09
2019-04-11T04:24:34.075Z,62.13
2019-04-11T04:27:04.556Z,62.13
2019-04-11T04:29:37.735Z,62.14
2019-04-11T04:32:08.197Z,62.14
2019-04-11T04:34:40.149Z,62.14
2019-04-11T04:37:12.029Z,62.18
2019-04-11T04:39:43.562Z,62.17
2019-04-11T04:42:23.839Z,62.17
2019-04-11T04:44:46.779Z,62.21
2019-04-11T04:47:25.020Z,62.20
2019-04-11T04:49:52.221Z,62.23
2019-04-11T04:52:22.730Z,62.24
2019-04-11T04:54:54.824Z,62.27
2019-04-11T04:57:26.784Z,62.30
2019-04-11T04:59:59.898Z,62.31
2019-04-11T05:02:30.941Z,62.35
2019-04-11T05:05:06.139Z,62.35
2019-04-11T05:07:40.155Z,62.38
2019-04-11T05:10:09.049Z,62.39
2019-04-11T05:12:39.476Z,62.42
2019-04-11T05:15:12.189Z,62.43
2019-04-11T05:17:44.465Z,62.46
2019-04-11T05:20:16.190Z,62.49
2019-04-11T05:22:47.255Z,62.52
2019-04-11T05:25:20.368Z,62.55
2019-04-11T05:27:50.749Z,62.58
2019-04-11T05:30:21.159Z,62.63
2019-04-11T05:32:51.451Z,62.64
2019-04-11T05:35:34.378Z,62.66
2019-04-11T05:38:04.988Z,62.69
2019-04-11T05:40:35.273Z,62.72
2019-04-11T05:43:05.995Z,62.74
2019-04-11T05:45:36.507Z,62.74
2019-04-11T05:48:10.156Z,62.77
2019-04-11T05:50:45.466Z,62.77
2019-04-11T05:53:13.697Z,62.77
2019-04-11T05:55:47.158Z,62.90
2019-04-11T05:58:17.678Z,62.88
2019-04-11T06:00:57.867Z,62.84
2019-04-11T06:03:28.442Z,62.87
2019-04-11T06:06:18.398Z,62.91
2019-04-11T06:08:49.482Z,62.93
2019-04-11T06:11:24.302Z,62.92
2019-04-11T06:14:13.112Z,62.94
2019-04-11T06:16:56.155Z,62.96
2019-04-11T06:19:45.810Z,62.99
2019-04-11T06:22:17.163Z,63.20
2019-04-11T06:25:09.190Z,63.55
2019-04-11T06:27:49.668Z,63.88
2019-04-11T06:30:30.521Z,64.05
2019-04-11T06:33:13.142Z,63.90
2019-04-11T06:36:14.694Z,63.76
2019-04-11T06:39:03.029Z,63.68
2019-04-11T06:42:01.621Z,63.62
2019-04-11T06:44:52.128Z,63.55
2019-04-11T06:47:45.077Z,63.42
2019-04-11T06:50:27.047Z,63.34
2019-04-11T06:52:58.204Z,63.31
2019-04-11T06:56:03.573Z,63.28
2019-04-11T06:58:39.995Z,63.30
2019-04-11T07:01:14.498Z,63.29
2019-04-11T07:03:49.136Z,63.32
2019-04-11T07:06:23.556Z,63.31
2019-04-11T07:09:16.715Z,63.34
2019-04-11T07:11:53.737Z,63.37
2019-04-11T07:14:33.262Z,63.40
2019-04-11T07:17:21.491Z,63.37
2019-04-11T07:20:06.928Z,63.38
2019-04-11T07:22:55.671Z,63.54
2019-04-11T07:25:48.733Z,63.70
2019-04-11T07:28:36.809Z,63.75
2019-04-11T07:31:25.461Z,63.76
2019-04-11T07:34:19.368Z,63.83
2019-04-11T07:37:07.397Z,63.77
2019-04-11T07:40:03.321Z,63.66
2019-04-11T07:42:52.851Z,63.60
2019-04-11T07:45:28.509Z,63.56
2019-04-11T07:48:07.114Z,63.56
2019-04-11T07:50:36.912Z,63.56
2019-04-11T07:53:08.688Z,63.56
2019-04-11T07:55:40.203Z,63.52
2019-04-11T07:58:47.919Z,63.45
2019-04-11T08:01:49.323Z,63.44
2019-04-11T08:04:38.679Z,63.38
2019-04-11T08:07:28.269Z,63.36
2019-04-11T08:10:03.003Z,63.39
2019-04-11T08:12:34.657Z,63.40
2019-04-11T08:15:27.923Z,63.34
2019-04-11T08:18:00.402Z,63.33
2019-04-11T08:20:59.078Z,63.31
2019-04-11T08:23:29.792Z,63.43
2019-04-11T08:26:33.935Z,63.59
2019-04-11T08:29:10.600Z,63.79
2019-04-11T08:35:33.149Z,64.00
2019-04-11T08:38:08.188Z,64.11
2019-04-11T08:40:45.210Z,64.05
2019-04-11T08:43:19.747Z,64.11
2019-04-11T08:45:54.597Z,64.09
2019-04-11T08:48:25.085Z,64.04
2019-04-11T08:51:00.951Z,64.00
2019-04-11T08:53:55.187Z,63.95
2019-04-11T08:56:25.845Z,63.92
2019-04-11T08:59:29.250Z,64.00
2019-04-11T09:02:00.416Z,64.24
2019-04-11T09:05:12.001Z,64.45
2019-04-11T09:07:43.459Z,64.31
2019-04-11T09:10:33.803Z,64.12
2019-04-11T09:13:13.634Z,63.84
2019-04-11T09:16:01.781Z,63.67
2019-04-11T09:18:32.487Z,63.53
2019-04-11T09:21:34.637Z,63.48
2019-04-11T09:24:10.275Z,63.48
2019-04-11T09:26:58.744Z,63.45
2019-04-11T09:29:32.432Z,63.46
2019-04-11T09:32:22.216Z,63.46
2019-04-11T09:35:00.539Z,63.53
2019-04-11T09:37:33.925Z,63.56
2019-04-11T09:40:24.285Z,63.66
2019-04-11T09:43:12.475Z,63.75
2019-04-11T09:45:57.701Z,63.89
2019-04-11T09:48:46.371Z,63.95
2019-04-11T09:51:40.106Z,63.98
2019-04-11T09:54:30.699Z,64.01
2019-04-11T09:57:38.256Z,63.97
2019-04-11T10:00:28.889Z,64.02
2019-04-11T10:03:06.666Z,64.05
2019-04-11T10:06:05.285Z,64.00
2019-04-11T10:08:57.615Z,63.89
2019-04-11T10:11:59.161Z,63.75
2019-04-11T10:14:31.497Z,63.65
2019-04-11T10:17:22.616Z,63.57
2019-04-11T10:20:00.849Z,63.47
2019-04-11T10:22:54.351Z,63.41
2019-04-11T10:25:37.194Z,63.38
2019-04-11T10:28:27.280Z,63.29
2019-04-11T10:31:18.125Z,63.26
2019-04-11T10:34:14.461Z,63.24
2019-04-11T10:37:13.724Z,63.27
2019-04-11T10:40:04.549Z,63.31
2019-04-11T10:42:35.236Z,63.45
2019-04-11T10:45:41.115Z,63.65
2019-04-11T10:48:11.713Z,63.90
2019-04-11T10:51:13.051Z,64.11
2019-04-11T10:53:43.838Z,64.12
2019-04-11T10:56:35.976Z,64.13
2019-04-11T10:59:07.115Z,64.05
2019-04-11T11:01:56.087Z,64.31
2019-04-11T11:04:45.592Z,64.33
2019-04-11T11:07:21.765Z,64.13
2019-04-11T11:09:59.414Z,63.86
2019-04-11T11:12:37.776Z,63.68
2019-04-11T11:15:11.538Z,63.52
2019-04-11T11:18:32.032Z,63.48
2019-04-11T11:20:55.014Z,63.45
2019-04-11T11:23:39.266Z,63.47
2019-04-11T11:26:12.633Z,63.43
2019-04-11T11:28:48.783Z,63.40
2019-04-11T11:31:36.175Z,63.37
2019-04-11T11:34:09.295Z,63.36
2019-04-11T11:36:58.603Z,63.34
2019-04-11T11:39:49.638Z,63.28
2019-04-11T11:42:38.665Z,63.32
2019-04-11T11:45:19.438Z,63.27
2019-04-11T11:48:23.313Z,63.18
2019-04-11T11:50:53.279Z,63.12
2019-04-11T11:53:31.301Z,63.09
2019-04-11T11:56:02.135Z,63.07
2019-04-11T11:58:58.021Z,63.01
2019-04-11T12:01:27.435Z,62.97
2019-04-11T12:04:32.932Z,62.96
2019-04-11T12:07:06.018Z,62.94
2019-04-11T12:10:04.358Z,62.91
2019-04-11T12:12:48.419Z,62.90
2019-04-11T12:15:37.228Z,62.95
2019-04-11T12:18:18.479Z,63.24
2019-04-11T12:20:57.079Z,63.64
2019-04-11T12:23:46.593Z,63.57
2019-04-11T12:26:06.375Z,63.37
2019-04-11T12:29:14.306Z,63.11
2019-04-11T12:31:50.314Z,62.92
2019-04-11T12:34:38.690Z,62.73
2019-04-11T12:37:14.813Z,62.63
2019-04-11T12:40:04.600Z,62.60
2019-04-11T12:42:37.462Z,62.52
2019-04-11T12:45:36.941Z,62.42
2019-04-11T12:48:11.951Z,62.38
2019-04-11T12:50:58.364Z,62.35
2019-04-11T12:53:28.937Z,62.38
2019-04-11T12:56:21.603Z,62.37
2019-04-11T12:59:04.260Z,62.37
2019-04-11T13:02:02.873Z,62.36
2019-04-11T13:04:35.331Z,62.36
2019-04-11T13:07:34.304Z,62.38
2019-04-11T13:10:26.307Z,62.43
2019-04-11T13:13:19.026Z,62.50
2019-04-11T13:16:11.425Z,62.45
2019-04-11T13:18:51.231Z,62.35
2019-04-11T13:21:36.346Z,62.26
2019-04-11T13:24:24.705Z,62.18
2019-04-11T13:27:14.016Z,62.11
2019-04-11T13:30:03.341Z,62.09
2019-04-11T13:32:57.707Z,62.04
2019-04-11T13:35:41.129Z,62.02
2019-04-11T13:38:14.763Z,61.99
2019-04-11T13:41:20.712Z,62.00
2019-04-11T13:43:57.002Z,62.01
2019-04-11T13:46:46.315Z,62.00
2019-04-11T13:49:35.002Z,62.08
2019-04-11T13:52:28.735Z,62.08
2019-04-11T13:55:03.910Z,62.06
2019-04-11T13:57:57.618Z,62.01
2019-04-11T14:00:39.926Z,61.99
2019-04-11T14:03:22.464Z,61.91
2019-04-11T14:05:53.038Z,61.85
2019-04-11T14:08:28.152Z,61.83
2019-04-11T14:11:06.668Z,61.76
2019-04-11T14:13:41.784Z,61.70
2019-04-11T14:16:20.699Z,61.65
2019-04-11T14:19:18.161Z,61.60
2019-04-11T14:21:49.365Z,61.57
2019-04-11T14:24:29.794Z,61.54
2019-04-11T14:27:02.760Z,61.54
2019-04-11T14:29:54.726Z,61.50
2019-04-11T14:32:27.887Z,61.46
2019-04-11T14:35:23.394Z,61.47
2019-04-11T14:38:10.820Z,61.46
2019-04-11T14:41:11.829Z,61.44
2019-04-11T14:43:46.887Z,61.43
2019-04-11T14:46:25.746Z,61.37
2019-04-11T14:49:11.177Z,61.33
2019-04-11T14:52:00.497Z,61.31
2019-04-11T14:54:39.974Z,61.26
2019-04-11T14:57:17.986Z,61.17
2019-04-11T14:59:53.870Z,61.09
2019-04-11T15:02:41.359Z,61.02
2019-04-11T15:05:26.599Z,60.98
2019-04-11T15:07:58.527Z,60.94
2019-04-11T15:10:54.064Z,60.89
2019-04-11T15:13:27.480Z,60.87
2019-04-11T15:16:15.431Z,60.84
2019-04-11T15:18:51.790Z,60.83
2019-04-11T15:21:39.999Z,60.81
2019-04-11T15:24:11.054Z,60.80
2019-04-11T15:26:59.293Z,60.77
2019-04-11T15:29:32.292Z,60.76
2019-04-11T15:32:20.585Z,60.79
2019-04-11T15:34:56.374Z,60.80
2019-04-11T15:37:48.081Z,60.78
2019-04-11T15:40:29.385Z,60.76
2019-04-11T15:43:21.819Z,60.74
2019-04-11T15:46:14.659Z,60.81
2019-04-11T15:49:04.979Z,60.80
2019-04-11T15:51:39.605Z,60.81
2019-04-11T15:54:17.866Z,60.81
2019-04-11T15:56:54.423Z,60.83
2019-04-11T15:59:54.289Z,60.87
2019-04-11T16:02:43.732Z,60.83
2019-04-11T16:05:49.213Z,60.79
2019-04-11T16:08:39.516Z,60.73
2019-04-11T16:11:28.736Z,60.67
2019-04-11T16:14:18.052Z,60.63
2019-04-11T16:17:13.990Z,60.60
2019-04-11T16:19:47.862Z,60.53
2019-04-11T16:22:43.170Z,60.52
2019-04-11T16:25:18.682Z,60.51
2019-04-11T16:28:08.327Z,60.49
2019-04-11T16:30:40.912Z,60.44
2019-04-11T16:33:25.636Z,60.39
2019-04-11T16:36:17.065Z,60.34
2019-04-11T16:39:11.308Z,60.33
2019-04-11T16:41:56.043Z,60.30
2019-04-11T16:44:46.227Z,60.26
2019-04-11T16:47:43.996Z,60.16
2019-04-11T16:50:14.686Z,60.12
2019-04-11T16:52:45.016Z,60.06
2019-04-11T16:55:15.375Z,59.98
2019-04-11T16:57:45.776Z,59.94
2019-04-11T17:00:20.369Z,59.89
2019-04-11T17:02:48.579Z,59.85
2019-04-11T17:05:19.126Z,59.81
2019-04-11T17:08:25.764Z,59.77
2019-04-11T17:11:21.562Z,59.73
2019-04-11T17:13:52.030Z,59.67
2019-04-11T17:16:22.521Z,59.60
2019-04-11T17:18:52.826Z,59.66
2019-04-11T17:21:23.417Z,59.66
2019-04-11T17:23:58.233Z,59.45
2019-04-11T17:26:28.990Z,59.40
2019-04-11T17:28:59.303Z,59.35
2019-04-11T17:31:31.464Z,59.31
2019-04-11T17:34:02.500Z,59.26
2019-04-11T17:36:33.953Z,59.22
2019-04-11T17:39:07.157Z,59.20
2019-04-11T17:41:41.725Z,59.14
2019-04-11T17:44:11.373Z,59.42
2019-04-11T17:46:41.705Z,59.06
2019-04-11T17:49:12.039Z,59.04
2019-04-11T17:51:42.916Z,59.04
2019-04-11T17:54:14.568Z,58.92
2019-04-11T17:56:44.867Z,58.86
2019-04-11T17:59:18.080Z,58.81
2019-04-11T18:01:48.445Z,58.78
2019-04-11T18:04:18.815Z,58.75
2019-04-11T18:06:49.380Z,58.72
2019-04-11T18:09:25.497Z,58.69
2019-04-11T18:11:55.876Z,58.64
2019-04-11T18:14:24.271Z,58.63
2019-04-11T18:16:54.674Z,58.65
2019-04-11T18:19:25.380Z,58.65
2019-04-11T18:22:07.045Z,58.63
2019-04-11T18:24:28.265Z,58.62
2019-04-11T18:26:59.955Z,58.62
2019-04-11T18:29:30.344Z,58.57
2019-04-11T18:32:00.620Z,58.56
2019-04-11T18:34:31.843Z,58.50
2019-04-11T18:37:02.765Z,58.50
2019-04-11T18:39:33.641Z,58.45
2019-04-11T18:42:05.439Z,58.41
2019-04-11T18:44:35.836Z,58.39
2019-04-11T18:47:06.141Z,58.37
2019-04-11T18:49:36.562Z,58.33
2019-04-11T18:52:06.972Z,58.30
2019-04-11T18:54:37.601Z,58.28
2019-04-11T18:57:08.056Z,58.27
2019-04-11T18:59:39.303Z,58.24
2019-04-11T19:02:10.453Z,58.19
2019-04-11T19:04:42.217Z,58.12
2019-04-11T19:07:13.829Z,58.11
2019-04-11T19:09:46.693Z,58.03
2019-04-11T19:12:20.587Z,58.00
2019-04-11T19:18:23.428Z,57.92
2019-04-11T19:20:55.441Z,57.89
2019-04-11T19:23:26.106Z,57.86
2019-04-11T19:25:56.646Z,57.86
2019-04-11T19:28:27.119Z,57.86
2019-04-11T19:30:57.479Z,57.85
2019-04-11T19:33:27.884Z,57.81
2019-04-11T19:35:58.509Z,57.77
2019-04-11T19:38:31.267Z,57.70
2019-04-11T19:41:01.615Z,57.68
2019-04-11T19:43:32.206Z,57.64
2019-04-11T19:46:50.972Z,57.61
2019-04-11T19:49:20.662Z,57.56
2019-04-11T19:51:51.383Z,57.51
2019-04-11T19:54:21.784Z,57.49
2019-04-11T19:56:57.400Z,57.48
2019-04-11T19:59:29.136Z,57.49
2019-04-11T20:01:59.526Z,57.51
2019-04-11T20:04:30.260Z,57.50
2019-04-11T20:07:02.079Z,57.51
2019-04-11T20:09:32.441Z,57.48
2019-04-11T20:12:02.773Z,57.44
2019-04-11T20:14:34.914Z,57.38
2019-04-11T20:17:05.494Z,57.33
2019-04-11T20:19:35.843Z,57.30
2019-04-11T20:22:08.600Z,57.27
2019-04-11T20:24:38.349Z,57.25
2019-04-11T20:27:08.791Z,57.22
2019-04-11T20:29:39.129Z,57.22
2019-04-11T20:32:09.847Z,57.21
2019-04-11T20:34:40.178Z,57.18
2019-04-11T20:37:13.002Z,57.15
2019-04-11T20:39:46.476Z,57.15
2019-04-11T20:42:17.082Z,57.11
2019-04-11T20:44:46.718Z,57.10
2019-04-11T20:47:17.110Z,57.09
2019-04-11T20:49:49.089Z,57.05
2019-04-11T20:52:19.458Z,57.05
2019-04-11T20:54:49.867Z,57.05
2019-04-11T20:57:25.660Z,57.03
2019-04-11T20:59:52.298Z,57.04
2019-04-11T21:02:22.705Z,57.02
2019-04-11T21:04:52.995Z,57.01
2019-04-11T21:07:23.368Z,56.97
2019-04-11T21:09:53.716Z,57.00
2019-04-11T21:12:24.100Z,57.03
2019-04-11T21:14:54.455Z,57.00
2019-04-11T21:17:24.805Z,56.97
2019-04-11T21:19:57.133Z,56.95
2019-04-11T21:22:27.470Z,56.93
2019-04-11T21:24:59.547Z,56.91
2019-04-11T21:27:30.032Z,56.92
2019-04-11T21:30:00.622Z,56.90
2019-04-11T21:32:31.841Z,56.82
2019-04-11T21:35:03.170Z,56.86
2019-04-11T21:37:33.597Z,56.82
2019-04-11T21:40:05.808Z,56.81
2019-04-11T21:42:36.803Z,56.78
2019-04-11T21:45:07.405Z,56.76
2019-04-11T21:47:38.090Z,56.75
2019-04-11T21:50:09.428Z,56.77
2019-04-11T21:52:43.306Z,56.75
2019-04-11T21:55:15.133Z,56.72
2019-04-11T21:57:48.340Z,56.73
2019-04-11T22:00:23.518Z,56.69
2019-04-11T22:02:54.488Z,56.69
2019-04-11T22:05:28.973Z,56.68
2019-04-11T22:07:57.534Z,56.67
2019-04-11T22:10:28.057Z,56.66
2019-04-11T22:12:58.379Z,56.63
2019-04-11T22:15:28.891Z,56.62
2019-04-11T22:17:59.267Z,56.62
2019-04-11T22:20:29.643Z,56.63
2019-04-11T22:23:01.598Z,56.61
2019-04-11T22:25:32.028Z,56.62
2019-04-11T22:28:02.609Z,56.61
2019-04-11T22:30:33.062Z,56.61
2019-04-11T22:33:08.451Z,56.54
2019-04-11T22:35:38.828Z,56.58
2019-04-11T22:38:09.235Z,56.58
2019-04-11T22:40:39.638Z,56.57
2019-04-11T22:43:22.533Z,56.61
2019-04-11T22:45:42.067Z,56.66
2019-04-11T22:48:12.422Z,56.67
2019-04-11T22:50:42.752Z,56.69
2019-04-11T22:53:13.617Z,56.68
2019-04-11T22:55:43.953Z,56.69
2019-04-11T22:58:14.789Z,56.64
2019-04-11T23:00:45.968Z,56.67
2019-04-11T23:03:32.966Z,56.63
2019-04-11T23:06:03.404Z,56.61
2019-04-11T23:08:33.855Z,56.61
2019-04-11T23:11:04.569Z,56.58
2019-04-11T23:13:35.000Z,56.56
2019-04-11T23:16:05.401Z,56.59
2019-04-11T23:18:35.719Z,56.61
2019-04-11T23:21:06.094Z,56.59
2019-04-11T23:23:38.015Z,56.60
2019-04-11T23:26:08.315Z,56.61
2019-04-11T23:28:39.055Z,56.61
2019-04-11T23:31:09.373Z,56.66
2019-04-11T23:33:39.699Z,56.67
2019-04-11T23:36:10.335Z,56.66
2019-04-11T23:38:40.695Z,56.68
2019-04-11T23:41:11.038Z,56.68
2019-04-11T23:43:41.369Z,56.67
2019-04-11T23:46:11.715Z,56.64
2019-04-11T23:48:42.078Z,56.58
2019-04-11T23:51:12.424Z,56.56
2019-04-11T23:53:42.805Z,56.57
2019-04-11T23:56:13.213Z,56.56
2019-04-11T23:58:43.573Z,56.61
